Time;durP1;ratioP1;P1;durP2;ratioP2;P2;SDS_P1;SDS_P2;PMS_P1;PMS_P2;Temp;Humidity;BMP_temperature;BMP_pressure;BME280_temperature;BME280_humidity;BME280_pressure;Samples;Min_cycle;Max_cycle;Signal;HPM_P1;HPM_P2
2021/12/15 00:01:34;;;;;;;;;59.25;42.75;;;;;8.98;72.22;102360.03;5057162;28;45384;-61
2021/12/15 00:04:00;;;;;;;;;53.75;43.50;;;;;8.99;71.68;102359.09;5039138;28;45395;-61
2021/12/15 00:06:25;;;;;;;;;53.00;40.25;;;;;8.99;71.64;102362.59;5038976;28;45423;-61
2021/12/15 00:08:53;;;;;;;;;54.50;43.25;;;;;8.99;71.73;102362.59;5038040;28;72911;-60
2021/12/15 00:11:18;;;;;;;;;57.00;43.75;;;;;8.98;71.45;102358.28;5057129;28;45319;-62
2021/12/15 00:13:44;;;;;;;;;58.00;44.75;;;;;8.98;71.87;102342.53;5057052;28;45372;-61
2021/12/15 00:16:10;;;;;;;;;59.50;44.00;;;;;9.00;71.78;102351.19;5039042;28;45451;-62
2021/12/15 00:18:35;;;;;;;;;58.50;44.00;;;;;8.99;71.38;102341.63;5038973;28;45376;-60
2021/12/15 00:21:01;;;;;;;;;55.75;42.00;;;;;8.99;71.77;102346.00;5056831;28;45486;-62
2021/12/15 00:23:27;;;;;;;;;57.50;43.50;;;;;8.98;71.54;102345.16;5056780;28;45435;-62
2021/12/15 00:25:52;;;;;;;;;51.00;40.75;;;;;8.99;71.60;102348.63;5056341;28;45530;-62
2021/12/15 00:28:17;;;;;;;;;60.25;44.00;;;;;8.99;71.98;102346.84;5037751;28;72982;-61
2021/12/15 00:30:43;;;;;;;;;59.75;43.25;;;;;9.00;71.62;102342.44;5056754;28;45359;-60
2021/12/15 00:33:08;;;;;;;;;59.75;46.50;;;;;8.97;71.58;102346.09;5038775;28;45384;-62
2021/12/15 00:35:35;;;;;;;;;52.50;39.75;;;;;8.98;71.74;102350.41;5056467;28;45423;-61
2021/12/15 00:38:01;;;;;;;;;58.00;42.25;;;;;8.98;71.88;102350.41;5038127;28;45663;-62
2021/12/15 00:40:26;;;;;;;;;57.50;46.25;;;;;8.97;71.78;102346.09;5056422;28;45385;-61
2021/12/15 00:42:52;;;;;;;;;61.00;45.50;;;;;8.98;71.77;102339.06;5056575;28;45538;-60
2021/12/15 00:45:18;;;;;;;;;58.50;44.75;;;;;8.99;71.79;102340.75;5038428;28;46428;-61
2021/12/15 00:47:44;;;;;;;;;56.50;44.25;;;;;8.99;71.68;102335.50;5056503;28;45353;-61
2021/12/15 00:50:10;;;;;;;;;56.50;42.00;;;;;8.99;71.86;102335.50;5038721;28;45324;-62
2021/12/15 00:52:36;;;;;;;;;59.50;44.50;;;;;8.98;71.87;102342.53;5038442;28;45494;-61
2021/12/15 00:55:03;;;;;;;;;51.75;40.25;;;;;9.00;71.76;102345.06;5056283;28;46285;-62
2021/12/15 00:57:29;;;;;;;;;48.50;38.25;;;;;9.00;71.92;102345.94;5056309;28;45719;-62
2021/12/15 00:59:54;;;;;;;;;53.00;41.25;;;;;8.99;71.74;102344.25;5055614;28;61881;-61
2021/12/15 01:02:19;;;;;;;;;47.25;39.50;;;;;9.00;71.79;102342.44;5055604;28;63100;-61
2021/12/15 01:04:45;;;;;;;;;51.75;40.25;;;;;9.00;71.60;102343.31;5056060;28;46286;-62
2021/12/15 01:07:11;;;;;;;;;53.25;41.25;;;;;9.02;71.57;102340.59;5055494;28;61587;-61
2021/12/15 01:09:45;;;;;;;;;52.00;39.00;;;;;9.03;71.68;102348.34;5059274;28;45255;-60
2021/12/15 01:12:20;;;;;;;;;54.25;41.25;;;;;9.04;71.39;102341.34;5042580;28;45460;-62
2021/12/15 01:20:05;;;;;;;;;53.75;39.75;;;;;9.02;71.30;102345.84;5059847;28;45451;-61
2021/12/15 01:22:40;;;;;;;;;52.00;40.25;;;;;9.03;71.43;102342.28;5059589;28;45260;-62
2021/12/15 01:25:18;;;;;;;;;52.50;39.50;;;;;9.02;71.41;102346.66;5059355;28;46411;-62
2021/12/15 01:27:44;;;;;;;;;49.25;37.75;;;;;9.04;71.63;102343.97;5042137;28;45483;-61
2021/12/15 01:30:11;;;;;;;;;53.25;41.75;;;;;9.04;71.60;102347.44;5059538;28;45325;-61
2021/12/15 01:32:36;;;;;;;;;54.25;39.00;;;;;9.06;71.67;102353.44;5058772;28;45339;-61
2021/12/15 01:35:02;;;;;;;;;50.50;39.25;;;;;9.05;71.64;102351.75;5058491;28;71453;-60
2021/12/15 01:37:27;;;;;;;;;54.00;41.75;;;;;9.05;71.32;102343.88;5041307;28;45282;-62
2021/12/15 01:39:55;;;;;;;;;54.75;42.25;;;;;9.05;71.32;102345.66;5058622;28;61479;-61
2021/12/15 01:42:23;;;;;;;;;45.75;38.00;;;;;9.04;71.51;102344.81;5059420;28;45459;-61
2021/12/15 01:47:32;;;;;;;;;53.00;41.00;;;;;9.03;71.43;102342.28;5059383;28;45420;-62
2021/12/15 01:49:57;;;;;;;;;49.50;39.25;;;;;9.01;71.30;102352.84;5058710;28;61892;-60
2021/12/15 01:52:25;;;;;;;;;56.50;42.00;;;;;9.01;71.46;102355.47;5058191;28;69432;-61
2021/12/15 01:55:04;;;;;;;;;48.75;39.25;;;;;9.01;71.54;102359.88;5041404;28;45458;-61
2021/12/15 01:57:30;;;;;;;;;52.25;40.00;;;;;9.02;71.48;102362.41;5059099;28;45699;-62
2021/12/15 01:59:56;;;;;;;;;54.25;40.25;;;;;9.02;71.38;102357.16;5059120;28;45313;-61
2021/12/15 02:02:21;;;;;;;;;50.50;41.25;;;;;9.03;71.40;102368.50;5058922;28;45650;-61
2021/12/15 02:04:48;;;;;;;;;56.25;42.00;;;;;9.02;71.33;102365.03;5041037;28;46292;-61
2021/12/15 02:07:16;;;;;;;;;51.75;39.00;;;;;9.03;71.31;102365.88;5024203;28;45685;-61
2021/12/15 02:12:19;;;;;;;;;47.00;38.50;;;;;9.03;71.41;102365.88;5058916;28;45421;-61
2021/12/15 02:14:44;;;;;;;;;52.50;40.00;;;;;9.02;71.36;102367.66;5058657;28;46459;-61
2021/12/15 02:17:09;;;;;;;;;49.50;39.00;;;;;9.02;71.22;102372.06;5057953;28;68353;-61
2021/12/15 02:19:35;;;;;;;;;50.50;40.25;;;;;9.02;71.57;102378.13;5057871;28;68489;-62
2021/12/15 02:22:00;;;;;;;;;53.75;37.75;;;;;9.04;71.48;102367.56;5058004;28;60736;-62
2021/12/15 02:24:26;;;;;;;;;48.25;38.50;;;;;9.04;71.56;102375.44;5039953;28;64122;-60
2021/12/15 02:26:58;;;;;;;;;49.00;38.50;;;;;9.04;71.55;102376.28;5058415;28;45261;-61
2021/12/15 02:29:23;;;;;;;;;54.25;40.00;;;;;9.03;71.38;102374.59;5058821;28;45327;-61
2021/12/15 02:39:36;;;;;;;;;51.00;38.50;;;;;9.03;71.28;102368.50;5058631;28;45300;-61
2021/12/15 02:42:01;;;;;;;;;46.00;37.00;;;;;9.02;71.47;102367.66;5057902;28;57198;-60
2021/12/15 02:44:27;;;;;;;;;47.50;37.00;;;;;9.00;71.32;102369.53;5058423;28;46333;-61
2021/12/15 02:46:52;;;;;;;;;52.75;38.75;;;;;9.01;71.23;102367.75;5058319;28;45235;-60
2021/12/15 02:49:20;;;;;;;;;46.00;37.00;;;;;9.02;71.17;102372.06;5058565;28;45256;-63
2021/12/15 02:51:46;;;;;;;;;44.00;36.00;;;;;9.00;71.17;102374.78;5040495;28;45400;-61
2021/12/15 02:54:12;;;;;;;;;46.25;36.75;;;;;8.98;71.34;102370.53;5057928;28;49542;-61
2021/12/15 02:56:38;;;;;;;;;52.75;39.00;;;;;9.00;71.63;102371.28;5058214;28;45872;-61
2021/12/15 02:59:06;;;;;;;;;52.00;36.00;;;;;9.00;71.51;102366.91;5040432;28;45230;-61
2021/12/15 03:01:41;;;;;;;;;46.00;36.25;;;;;9.00;71.56;102369.53;5040439;28;45494;-62
2021/12/15 03:04:26;;;;;;;;;46.50;34.50;;;;;9.01;71.51;102365.13;5040003;28;47242;-62
2021/12/15 03:07:04;;;;;;;;;44.50;37.75;;;;;9.01;71.58;102373.81;5042802;28;45322;-61
2021/12/15 03:15:24;;;;;;;;;50.00;35.50;;;;;8.99;71.18;102365.22;5042630;28;45694;-61
2021/12/15 03:18:06;;;;;;;;;50.00;36.25;;;;;8.96;71.38;102361.88;5057914;28;45359;-62
2021/12/15 03:20:36;;;;;;;;;41.25;33.25;;;;;8.97;71.53;102371.44;5058024;28;45286;-61
2021/12/15 03:23:02;;;;;;;;;43.50;35.00;;;;;8.95;71.34;102373.31;5023546;28;45258;-61
2021/12/15 03:25:30;;;;;;;;;45.25;35.00;;;;;8.95;71.53;102371.53;5022590;28;45529;-61
2021/12/15 03:36:06;;;;;;;;;42.25;34.75;;;;;8.94;71.50;102367.22;5057382;28;45379;-60
2021/12/15 03:38:33;;;;;;;;;42.75;34.00;;;;;8.94;71.55;102364.59;5039357;28;45758;-62
2021/12/15 03:40:58;;;;;;;;;49.25;35.75;;;;;8.93;71.64;102376.00;5039876;28;45262;-61
2021/12/15 03:43:23;;;;;;;;;47.50;35.75;;;;;8.94;71.40;102376.84;5022861;28;45468;-60
2021/12/15 03:45:57;;;;;;;;;37.50;34.75;;;;;8.93;71.32;102373.41;5057069;28;60403;-62
2021/12/15 03:48:25;;;;;;;;;41.00;34.75;;;;;8.93;71.81;102373.41;5039673;28;45467;-62
2021/12/15 03:50:51;;;;;;;;;39.25;35.00;;;;;8.91;71.42;102367.38;5039577;28;45433;-61
2021/12/15 03:53:18;;;;;;;;;36.75;33.75;;;;;8.91;71.80;102375.25;5022794;28;45460;-60
2021/12/15 03:55:43;;;;;;;;;50.00;36.00;;;;;8.90;71.88;102373.56;5057289;28;45416;-62
2021/12/15 03:58:11;;;;;;;;;42.00;35.00;;;;;8.90;71.58;102373.56;5039143;28;45400;-62
2021/12/15 04:00:39;;;;;;;;;49.00;36.25;;;;;8.91;71.65;102370.00;5039197;28;45297;-62
2021/12/15 04:03:04;;;;;;;;;43.75;34.75;;;;;8.90;71.52;102369.13;5057137;28;45205;-60
2021/12/15 04:05:30;;;;;;;;;47.50;36.00;;;;;8.89;71.57;102372.69;5056920;28;45182;-61
2021/12/15 04:07:57;;;;;;;;;47.25;37.50;;;;;8.90;71.17;102373.56;5056080;28;70260;-61
2021/12/15 04:10:23;;;;;;;;;51.75;38.00;;;;;8.90;71.70;102378.78;5039492;28;45372;-61
2021/12/15 04:12:49;;;;;;;;;45.75;35.50;;;;;8.91;71.79;102375.25;5022375;28;45674;-61
2021/12/15 04:17:47;;;;;;;;;42.75;35.50;;;;;8.90;71.42;102381.41;5056911;28;45233;-60
2021/12/15 04:20:14;;;;;;;;;40.50;32.50;;;;;8.90;71.57;102373.56;5056988;28;45381;-61
2021/12/15 04:22:41;;;;;;;;;42.75;35.50;;;;;8.91;71.71;102377.88;5056909;28;45296;-60
2021/12/15 04:25:08;;;;;;;;;41.75;36.00;;;;;8.93;71.41;102372.53;5038720;28;46471;-61
2021/12/15 04:27:34;;;;;;;;;43.75;35.00;;;;;8.93;71.51;102372.53;5038818;28;45374;-61
2021/12/15 04:29:59;;;;;;;;;41.50;34.75;;;;;8.93;71.80;102367.28;5038011;28;65757;-61
2021/12/15 04:32:34;;;;;;;;;42.50;35.75;;;;;8.96;71.66;102373.22;5056216;28;59934;-60
2021/12/15 04:34:59;;;;;;;;;46.25;36.00;;;;;8.97;71.83;102367.06;5056510;28;45400;-60
2021/12/15 04:37:25;;;;;;;;;44.00;35.25;;;;;8.96;71.84;102367.13;5056349;28;48825;-61
2021/12/15 04:39:50;;;;;;;;;46.50;37.00;;;;;8.97;71.40;102372.31;5056765;28;45224;-62
2021/12/15 04:42:18;;;;;;;;;43.75;36.00;;;;;8.96;71.64;102377.63;5055023;28;61773;-62
2021/12/15 04:44:44;;;;;;;;;51.25;38.75;;;;;8.96;71.88;102370.63;5055902;28;45272;-60
2021/12/15 04:47:10;;;;;;;;;39.50;34.50;;;;;8.96;71.48;102375.84;5055361;28;69444;-63
2021/12/15 04:49:41;;;;;;;;;43.00;35.50;;;;;8.97;71.25;102384.56;5055750;28;45447;-62
2021/12/15 04:52:07;;;;;;;;;46.50;35.75;;;;;8.94;71.50;102385.56;5056498;28;45661;-61
2021/12/15 04:54:33;;;;;;;;;45.25;35.75;;;;;8.94;71.65;102380.34;5056237;28;46262;-61
2021/12/15 04:56:59;;;;;;;;;41.75;36.00;;;;;8.92;71.66;102379.56;5038562;28;45419;-61
2021/12/15 04:59:24;;;;;;;;;49.00;35.00;;;;;8.92;71.46;102382.19;5037535;28;45331;-62
2021/12/15 05:01:49;;;;;;;;;41.00;36.00;;;;;8.92;71.76;102382.19;5056034;28;53864;-61
2021/12/15 05:04:15;;;;;;;;;45.50;38.00;;;;;8.91;71.75;102380.50;5056221;28;46083;-62
2021/12/15 05:06:40;;;;;;;;;41.25;35.00;;;;;8.90;71.68;102387.50;5056291;28;45324;-61
2021/12/15 05:09:06;;;;;;;;;37.75;35.00;;;;;8.89;71.68;102387.59;5021675;28;45358;-61
2021/12/15 05:11:32;;;;;;;;;47.00;36.50;;;;;8.89;71.83;102387.59;5056251;28;45571;-61
2021/12/15 05:13:57;;;;;;;;;36.75;32.00;;;;;8.88;72.04;102389.34;5038005;28;46227;-60
2021/12/15 05:16:22;;;;;;;;;42.25;33.25;;;;;8.89;71.90;102398.06;5056237;28;45403;-62
2021/12/15 05:18:49;;;;;;;;;48.00;36.75;;;;;8.90;71.89;102394.53;5055327;28;65794;-62
2021/12/15 05:21:15;;;;;;;;;52.25;37.25;;;;;8.90;71.72;102397.97;5056097;28;45508;-62
2021/12/15 05:23:44;;;;;;;;;49.00;36.00;;;;;8.89;71.80;102398.91;5056043;28;45611;-60
2021/12/15 05:26:09;;;;;;;;;43.50;34.00;;;;;8.89;71.79;102403.31;5055683;28;45450;-61
2021/12/15 05:28:34;;;;;;;;;41.50;33.00;;;;;8.89;72.04;102403.31;5055218;28;62351;-60
2021/12/15 05:31:00;;;;;;;;;41.75;35.75;;;;;8.88;72.09;102410.31;5055968;28;45626;-62
2021/12/15 05:33:25;;;;;;;;;47.75;35.00;;;;;8.89;72.12;102413.81;5055463;28;46585;-61
2021/12/15 05:35:51;;;;;;;;;41.00;33.50;;;;;8.89;72.14;102414.63;5037223;28;51343;-62
2021/12/15 05:38:17;;;;;;;;;47.75;35.50;;;;;8.91;72.04;102411.94;5055677;28;45253;-61
2021/12/15 05:40:42;;;;;;;;;42.00;34.50;;;;;8.90;72.00;102411.09;5038174;28;45254;-61
2021/12/15 05:43:08;;;;;;;;;46.25;35.25;;;;;8.91;71.80;102411.94;5055587;28;46206;-62
2021/12/15 05:45:35;;;;;;;;;42.75;33.50;;;;;8.90;71.66;102416.31;5055650;28;45339;-61
2021/12/15 05:48:01;;;;;;;;;43.00;34.75;;;;;8.89;72.13;102414.63;5037988;28;45527;-61
2021/12/15 05:50:27;;;;;;;;;39.50;32.75;;;;;8.90;71.81;102418.13;5055267;28;45939;-61
2021/12/15 05:52:53;;;;;;;;;46.00;33.00;;;;;8.89;71.94;102417.25;5055349;28;45879;-60
2021/12/15 05:55:19;;;;;;;;;44.00;36.00;;;;;8.89;72.06;102417.25;5057510;28;45405;-61
2021/12/15 05:57:44;;;;;;;;;41.00;32.00;;;;;8.90;71.71;102416.31;5059144;28;45443;-63
2021/12/15 06:00:13;;;;;;;;;42.75;36.00;;;;;8.90;71.94;102432.06;5040181;28;64035;-61
2021/12/15 06:02:39;;;;;;;;;44.25;36.50;;;;;8.91;72.00;102427.69;5024069;28;45365;-60
2021/12/15 06:05:04;;;;;;;;;40.50;33.25;;;;;8.93;71.67;102427.59;5040907;28;45448;-61
2021/12/15 06:07:30;;;;;;;;;47.75;37.25;;;;;8.91;71.86;102428.50;5058485;28;45264;-61
2021/12/15 06:09:55;;;;;;;;;50.50;38.00;;;;;8.89;71.74;102426.91;5040337;28;61170;-62
2021/12/15 06:12:21;;;;;;;;;52.25;37.25;;;;;8.90;71.63;102431.22;5058581;28;45652;-61
2021/12/15 06:14:46;;;;;;;;;48.00;36.00;;;;;8.90;71.81;102428.59;5041049;28;45955;-61
2021/12/15 06:17:11;;;;;;;;;45.75;36.00;;;;;8.91;71.60;102432.91;5058745;28;45598;-61
2021/12/15 06:19:37;;;;;;;;;50.75;36.00;;;;;8.90;71.90;102446.97;5058668;28;45563;-60
2021/12/15 06:22:04;;;;;;;;;45.75;34.25;;;;;8.88;71.84;102449.63;5039332;28;72873;-61
2021/12/15 06:24:29;;;;;;;;;49.50;38.00;;;;;8.88;71.81;102452.25;5040750;28;45289;-61
2021/12/15 06:26:57;;;;;;;;;39.75;33.75;;;;;8.87;71.86;102453.19;5040479;28;45580;-61
2021/12/15 06:29:23;;;;;;;;;45.75;35.00;;;;;8.87;71.68;102455.81;5040793;28;45322;-62
2021/12/15 06:31:48;;;;;;;;;46.25;34.50;;;;;8.86;71.91;102455.91;5057682;28;67072;-61
2021/12/15 06:34:15;;;;;;;;;41.50;34.75;;;;;8.88;71.78;102456.66;5057360;28;71367;-61
2021/12/15 06:36:40;;;;;;;;;47.50;36.75;;;;;8.89;71.90;102463.59;5058624;28;45258;-60
2021/12/15 06:39:06;;;;;;;;;45.50;34.00;;;;;8.90;71.55;102460.06;5040187;28;45257;-61
2021/12/15 06:41:31;;;;;;;;;39.00;33.75;;;;;8.88;71.69;102460.13;5058014;28;45375;-61
2021/12/15 06:43:58;;;;;;;;;36.75;33.50;;;;;8.86;71.74;102461.97;5057266;28;63336;-61
2021/12/15 06:59:46;;;;;;;;;39.25;32.50;;;;;8.81;71.87;102474.47;5058080;28;45423;-60
2021/12/15 07:02:12;;;;;;;;;45.25;34.50;;;;;8.79;72.01;102472.84;5057559;28;45980;-62
2021/12/15 07:04:37;;;;;;;;;39.00;32.75;;;;;8.80;72.23;102477.16;5057425;28;52686;-61
2021/12/15 07:07:04;;;;;;;;;39.25;32.50;;;;;8.79;72.04;102486.78;5056956;28;45692;-61
2021/12/15 07:09:30;;;;;;;;;43.50;35.00;;;;;8.77;72.23;102470.28;5057951;28;45379;-61
2021/12/15 07:11:55;;;;;;;;;41.25;34.00;;;;;8.76;72.40;102482.56;5038822;28;69131;-61
2021/12/15 07:14:20;;;;;;;;;38.50;33.25;;;;;8.75;72.57;102486.09;5056859;28;69114;-61
2021/12/15 07:16:48;;;;;;;;;45.25;35.00;;;;;8.76;72.32;102484.31;5038885;28;56798;-61
2021/12/15 07:21:52;;;;;;;;;44.25;36.00;;;;;8.75;72.37;102501.84;5057410;28;45371;-61
2021/12/15 07:24:18;;;;;;;;;42.50;36.00;;;;;8.75;72.51;102500.97;5057586;28;45341;-61
2021/12/15 07:26:43;;;;;;;;;41.00;34.50;;;;;8.73;72.66;102497.59;5057430;28;45482;-62
2021/12/15 07:29:08;;;;;;;;;43.50;34.75;;;;;8.73;72.62;102502.84;5056860;28;59447;-62
2021/12/15 07:31:34;;;;;;;;;36.00;32.25;;;;;8.72;72.68;102509.00;5038406;28;72996;-61
2021/12/15 07:33:59;;;;;;;;;39.00;32.75;;;;;8.72;72.46;102504.59;5038408;28;68575;-61
2021/12/15 07:36:24;;;;;;;;;47.25;35.00;;;;;8.71;72.58;102502.91;5056962;28;62799;-61
2021/12/15 07:38:50;;;;;;;;;45.75;32.75;;;;;8.71;72.73;102513.38;5056767;28;61661;-61
2021/12/15 07:42:05;;;;;;;;;40.25;33.75;;;;;8.70;72.75;102513.47;5057253;28;46054;-60
2021/12/15 07:44:05;;;;;;;;;43.50;34.00;;;;;8.69;72.96;102515.22;5039841;28;45396;-62
2021/12/15 07:46:30;;;;;;;;;42.75;34.75;;;;;8.70;72.82;102519.56;5057118;28;45360;-62
2021/12/15 07:49:00;;;;;;;;;44.50;34.25;;;;;8.70;72.95;102523.97;5027978;28;45483;-62
2021/12/15 07:51:26;;;;;;;;;38.75;34.25;;;;;8.69;73.03;102520.47;5033795;28;46893;-62
2021/12/15 07:53:52;;;;;;;;;49.00;35.75;;;;;8.69;73.02;102523.09;5068327;28;69677;-61
2021/12/15 07:56:20;;;;;;;;;48.75;33.75;;;;;8.68;73.00;102531.88;5032429;28;45390;-61
2021/12/15 07:58:46;;;;;;;;;43.50;33.00;;;;;8.68;73.27;102521.41;5010918;28;45505;-61
2021/12/15 08:01:12;;;;;;;;;36.75;33.00;;;;;8.69;73.03;102528.34;5045155;28;46069;-61
2021/12/15 08:03:39;;;;;;;;;48.00;35.00;;;;;8.69;73.06;102532.75;5034131;28;45384;-60
2021/12/15 08:06:06;;;;;;;;;43.50;35.50;;;;;8.69;73.17;102523.09;5019328;28;45444;-60
2021/12/15 08:08:31;;;;;;;;;41.75;35.00;;;;;8.71;73.43;102523.03;5033290;28;45412;-61
2021/12/15 08:10:57;;;;;;;;;47.75;36.25;;;;;8.73;73.23;102529.06;5055737;28;71122;-60
2021/12/15 08:13:33;;;;;;;;;46.50;35.25;;;;;8.73;73.31;102523.81;5038232;28;45468;-61
2021/12/15 08:15:59;;;;;;;;;48.00;35.00;;;;;8.74;73.32;102525.50;5056704;28;45305;-62
2021/12/15 08:18:24;;;;;;;;;47.50;36.25;;;;;8.76;73.18;102536.75;5038427;28;45530;-60
2021/12/15 08:20:53;;;;;;;;;47.75;36.00;;;;;8.76;73.52;102535.00;5055569;28;47216;-62
2021/12/15 08:23:20;;;;;;;;;45.00;34.75;;;;;8.79;73.60;102530.53;5055138;28;45920;-61
2021/12/15 08:25:45;;;;;;;;;53.00;38.75;;;;;8.81;73.50;102539.16;5037178;28;45667;-61
2021/12/15 08:28:11;;;;;;;;;48.75;39.25;;;;;8.83;73.43;102537.31;5038360;28;45304;-61
2021/12/15 08:30:36;;;;;;;;;49.50;38.25;;;;;8.83;73.26;102537.31;5055733;28;46703;-61
2021/12/15 08:33:05;;;;;;;;;46.75;38.25;;;;;8.85;73.48;102532.84;5055855;28;45380;-62
2021/12/15 08:35:34;;;;;;;;;47.75;37.50;;;;;8.86;73.31;102534.53;5038203;28;45400;-61
2021/12/15 08:37:59;;;;;;;;;50.00;39.00;;;;;8.87;73.20;102537.06;5055934;28;45773;-60
2021/12/15 08:40:25;;;;;;;;;49.75;36.50;;;;;8.88;73.51;102538.78;5037054;28;68546;-62
2021/12/15 08:42:51;;;;;;;;;54.25;39.00;;;;;8.90;73.58;102541.34;5037592;28;46241;-61
2021/12/15 08:45:16;;;;;;;;;51.00;39.50;;;;;8.92;73.42;102536.88;5056439;28;45508;-61
2021/12/15 08:47:42;;;;;;;;;55.75;40.00;;;;;8.93;73.51;102541.19;5055038;27;62973;-62
2021/12/15 08:50:09;;;;;;;;;52.75;42.00;;;;;8.94;73.49;102542.88;5066363;27;65379;-62
2021/12/15 08:52:34;;;;;;;;;55.50;43.75;;;;;8.96;73.27;102543.66;5049908;27;45643;-62
2021/12/15 08:54:59;;;;;;;;;52.50;42.50;;;;;9.00;73.42;102539.09;5070326;27;60900;-61
2021/12/15 08:57:25;;;;;;;;;49.75;39.25;;;;;9.01;73.21;102540.78;5066387;27;45576;-61
2021/12/15 08:59:50;;;;;;;;;49.25;40.75;;;;;9.02;73.02;102538.06;5059690;27;69920;-60
2021/12/15 09:02:16;;;;;;;;;46.75;37.50;;;;;9.05;72.66;102542.34;5060731;27;62062;-62
2021/12/15 09:04:41;;;;;;;;;49.25;37.50;;;;;9.07;72.56;102540.50;5094904;27;45248;-61
2021/12/15 09:07:06;;;;;;;;;50.25;38.75;;;;;9.07;72.99;102543.13;5056816;28;66113;-62
2021/12/15 09:09:32;;;;;;;;;53.25;43.00;;;;;9.10;72.50;102544.72;5070985;27;66776;-61
2021/12/15 09:11:57;;;;;;;;;47.75;38.75;;;;;9.11;72.99;102543.78;5060600;27;57134;-61
2021/12/15 09:14:23;;;;;;;;;46.75;37.00;;;;;9.12;72.68;102543.72;5067278;27;45992;-60
2021/12/15 09:16:50;;;;;;;;;42.00;33.00;;;;;9.14;72.40;102551.50;5066750;27;45521;-60
2021/12/15 09:19:15;;;;;;;;;49.00;35.25;;;;;9.14;72.59;102546.25;5068063;27;46363;-62
2021/12/15 09:21:42;;;;;;;;;46.75;35.50;;;;;9.16;72.36;102547.03;5063079;27;45411;-61
2021/12/15 09:24:09;;;;;;;;;47.50;36.00;;;;;9.18;72.73;102553.06;5062518;27;45435;-60
2021/12/15 09:26:34;;;;;;;;;49.75;38.00;;;;;9.23;72.54;102558.09;5060296;27;45244;-61
2021/12/15 09:29:00;;;;;;;;;39.00;33.50;;;;;9.23;72.55;102558.91;5058110;28;46152;-61
2021/12/15 09:31:25;;;;;;;;;45.75;35.00;;;;;9.25;72.36;102559.69;5065438;27;45343;-60
2021/12/15 09:33:52;;;;;;;;;37.00;33.25;;;;;9.28;72.29;102559.53;5075113;27;45392;-61
2021/12/15 09:36:18;;;;;;;;;39.50;32.00;;;;;9.29;71.79;102563.88;5074854;27;45591;-60
2021/12/15 09:38:45;;;;;;;;;38.25;32.25;;;;;9.31;71.99;102567.25;5073055;27;46468;-63
2021/12/15 09:41:11;;;;;;;;;43.00;36.00;;;;;9.32;71.75;102566.34;5069469;27;45891;-62
2021/12/15 09:43:37;;;;;;;;;40.75;32.50;;;;;9.34;71.97;102561.84;5076269;27;45402;-62
2021/12/15 09:46:10;;;;;;;;;38.25;32.25;;;;;9.38;72.18;102559.91;5072663;27;45533;-61
2021/12/15 10:02:32;;;;;;;;;41.25;32.50;;;;;9.49;71.40;102560.22;5066421;27;45489;-62
2021/12/15 10:10:46;;;;;;;;;45.75;32.75;;;;;9.58;71.21;102569.38;5069595;27;45403;-60
2021/12/15 10:20:52;;;;;;;;;40.50;34.50;;;;;9.70;70.86;102561.81;5068065;27;45419;-63
2021/12/15 10:23:23;;;;;;;;;34.25;27.75;;;;;9.72;71.04;102565.19;5068542;27;45297;-62
2021/12/15 10:25:53;;;;;;;;;34.75;31.00;;;;;9.75;70.74;102571.16;5067454;27;45392;-63
2021/12/15 10:28:23;;;;;;;;;27.00;24.50;;;;;9.78;70.61;102560.50;5049943;28;45570;-61
2021/12/15 10:31:08;;;;;;;;;30.00;23.75;;;;;9.82;70.24;102561.16;5058886;27;47632;-61
2021/12/15 10:33:44;;;;;;;;;29.50;24.00;;;;;9.85;70.19;102565.38;5055937;27;45485;-62
2021/12/15 10:36:12;;;;;;;;;31.00;25.75;;;;;9.87;70.06;102564.41;5040906;28;45392;-61
2021/12/15 10:38:44;;;;;;;;;33.00;29.25;;;;;9.90;69.84;102564.25;5067464;27;45584;-61
2021/12/15 10:41:11;;;;;;;;;28.50;26.50;;;;;9.91;69.57;102559.81;5059475;27;45557;-62
2021/12/15 10:43:40;;;;;;;;;37.25;27.75;;;;;9.92;69.69;102559.75;5068701;27;45742;-62
2021/12/15 10:46:33;;;;;;;;;36.50;29.50;;;;;9.93;69.69;102558.81;5073180;27;45336;-63
2021/12/15 10:49:07;;;;;;;;;29.25;26.75;;;;;9.93;69.43;102557.97;5048426;28;45471;-60
2021/12/15 10:51:49;;;;;;;;;36.75;28.00;;;;;9.93;69.66;102564.06;5084256;27;45343;-61
2021/12/15 10:54:18;;;;;;;;;31.50;29.50;;;;;9.92;69.39;102559.75;5084215;27;45376;-60
2021/12/15 10:56:54;;;;;;;;;39.25;30.50;;;;;9.95;69.48;102556.09;5065335;27;45295;-61
2021/12/15 10:59:20;;;;;;;;;33.50;31.50;;;;;9.95;69.47;102548.22;5045088;27;45490;-61
2021/12/15 11:01:49;;;;;;;;;33.75;28.75;;;;;9.95;69.53;102558.72;5073240;27;45371;-62
2021/12/15 11:04:20;;;;;;;;;32.75;26.75;;;;;9.98;69.21;102555.09;5070552;27;45438;-61
2021/12/15 11:06:45;;;;;;;;;33.50;31.50;;;;;9.98;69.23;102552.47;5072381;27;46332;-61
2021/12/15 11:09:19;;;;;;;;;30.75;27.00;;;;;9.99;69.57;102551.56;5055104;27;45485;-62
2021/12/15 11:12:08;;;;;;;;;32.25;28.25;;;;;10.01;69.68;102541.81;5068217;27;46336;-61
2021/12/15 11:14:36;;;;;;;;;35.75;32.00;;;;;10.04;69.60;102544.28;5065997;27;45772;-61
2021/12/15 11:17:11;;;;;;;;;34.25;28.75;;;;;10.05;69.45;102541.56;5065517;27;45364;-62
2021/12/15 11:19:48;;;;;;;;;37.00;31.25;;;;;10.07;69.33;102550.19;5073041;27;45571;-61
2021/12/15 11:22:32;;;;;;;;;34.00;30.50;;;;;10.10;69.59;102550.03;5076771;27;45429;-60
2021/12/15 11:24:59;;;;;;;;;37.50;32.50;;;;;10.13;69.08;102537.66;5077507;27;46038;-61
2021/12/15 11:27:24;;;;;;;;;38.25;31.75;;;;;10.14;68.63;102539.34;5044386;27;45335;-60
2021/12/15 11:29:49;;;;;;;;;33.75;30.50;;;;;10.15;68.85;102541.06;5063091;27;62482;-61
2021/12/15 11:32:35;;;;;;;;;41.75;32.75;;;;;10.16;68.84;102540.97;5060885;27;72141;-62
2021/12/15 11:35:08;;;;;;;;;33.00;31.75;;;;;10.19;68.72;102543.41;5066941;27;45442;-62
2021/12/15 11:37:49;;;;;;;;;32.00;27.25;;;;;10.20;68.95;102539.03;5047591;27;45356;-61
2021/12/15 11:40:23;;;;;;;;;34.00;31.00;;;;;10.21;68.70;102536.31;5065984;27;45378;-62
2021/12/15 11:42:49;;;;;;;;;32.50;25.25;;;;;10.23;68.48;102533.59;5072342;27;46146;-61
2021/12/15 11:45:14;;;;;;;;;35.50;30.50;;;;;10.24;68.56;102536.13;5068817;27;46406;-61
2021/12/15 11:47:40;;;;;;;;;30.75;25.75;;;;;10.26;68.54;102528.19;5064881;27;45305;-61
2021/12/15 11:50:13;;;;;;;;;30.25;25.50;;;;;10.27;68.31;102529.88;5049398;28;45569;-60
2021/12/15 11:52:46;;;;;;;;;35.75;28.00;;;;;10.27;68.69;102529.03;5060423;27;46574;-61
2021/12/15 11:55:26;;;;;;;;;34.00;30.00;;;;;10.29;68.60;102538.53;5065210;27;46434;-61
2021/12/15 11:57:51;;;;;;;;;33.75;29.50;;;;;10.31;68.23;102530.53;5053656;28;45494;-61
2021/12/15 12:00:18;;;;;;;;;33.75;26.25;;;;;10.32;68.55;102532.25;5065717;27;48688;-63
2021/12/15 12:02:47;;;;;;;;;30.00;25.00;;;;;10.32;68.17;102527.84;5067562;27;46840;-61
2021/12/15 12:05:21;;;;;;;;;21.75;20.25;;;;;10.33;68.48;102529.50;5065618;27;45857;-62
2021/12/15 12:07:53;;;;;;;;;27.25;22.75;;;;;10.36;68.18;102533.78;5068968;27;45398;-62
2021/12/15 12:10:45;;;;;;;;;31.75;26.75;;;;;10.37;68.04;102527.59;5064897;27;45704;-61
2021/12/15 12:13:19;;;;;;;;;30.50;25.25;;;;;10.38;67.91;102524.84;5050274;28;46289;-61
2021/12/15 12:15:46;;;;;;;;;61.75;49.00;;;;;10.38;68.35;102516.97;5066425;27;45688;-61
2021/12/15 12:18:14;;;;;;;;;41.75;34.00;;;;;10.39;68.02;102520.50;5066727;27;45475;-62
2021/12/15 12:20:43;;;;;;;;;30.00;26.75;;;;;10.39;68.16;102520.50;5066887;27;45479;-62
2021/12/15 12:23:10;;;;;;;;;32.25;23.75;;;;;10.41;68.22;102525.66;5068226;27;46697;-63
2021/12/15 12:25:38;;;;;;;;;26.25;24.25;;;;;10.42;68.40;102522.09;5045847;28;45274;-61
2021/12/15 12:28:06;;;;;;;;;24.25;24.25;;;;;10.43;67.86;102519.38;5056532;27;45576;-62
2021/12/15 12:30:44;;;;;;;;;24.25;20.50;;;;;10.44;68.19;102513.19;5084091;27;45533;-61
2021/12/15 12:33:10;;;;;;;;;29.25;26.00;;;;;10.47;68.27;102515.66;5045771;27;45344;-61
2021/12/15 12:35:43;;;;;;;;;27.75;25.75;;;;;10.50;68.23;102514.63;5072463;27;45828;-61
2021/12/15 12:38:16;;;;;;;;;34.00;29.00;;;;;10.52;67.65;102516.25;5058433;27;45463;-61